Time;durP1;ratioP1;P1;durP2;ratioP2;P2;SDS_P1;SDS_P2;PMS_P1;PMS_P2;Temp;Humidity;BMP_temperature;BMP_pressure;BME280_temperature;BME280_humidity;BME280_pressure;Samples;Min_cycle;Max_cycle;Signal;HPM_P1;HPM_P2
2022/07/24 00:02:16;;;;;;;6.47;5.60;;;;;;;16.43;83.36;101281.22;4952918;28;20312;-67
2022/07/24 00:04:42;;;;;;;7.53;5.43;;;;;;;16.40;83.39;101278.88;4967310;28;20425;-67
2022/07/24 00:07:07;;;;;;;6.47;5.03;;;;;;;16.49;83.16;101282.41;4978463;28;20380;-67
2022/07/24 00:09:32;;;;;;;5.40;5.00;;;;;;;16.43;83.18;101283.88;4964346;28;20045;-67
2022/07/24 00:11:58;;;;;;;5.95;5.45;;;;;;;16.36;83.51;101290.00;4986562;28;20324;-67
2022/07/24 00:14:24;;;;;;;6.20;5.60;;;;;;;16.47;83.73;101285.22;4948234;28;20114;-67
2022/07/24 00:16:49;;;;;;;6.05;5.30;;;;;;;16.41;83.50;101285.03;4984147;28;20747;-68
2022/07/24 00:19:15;;;;;;;5.70;5.30;;;;;;;16.30;84.04;101286.16;4968665;28;20412;-66
2022/07/24 00:21:40;;;;;;;6.15;5.53;;;;;;;16.24;84.23;101287.63;4987230;28;20450;-68
2022/07/24 00:24:06;;;;;;;5.97;5.18;;;;;;;16.30;84.11;101288.81;4987424;28;20352;-65
2022/07/24 00:26:31;;;;;;;5.90;5.47;;;;;;;16.18;84.42;101284.78;4986883;28;20044;-67
2022/07/24 00:28:57;;;;;;;6.45;5.28;;;;;;;16.23;84.43;101277.13;4969932;28;20694;-67
2022/07/24 00:31:22;;;;;;;6.18;5.25;;;;;;;16.20;84.28;101280.97;4993784;28;20018;-67
2022/07/24 00:33:48;;;;;;;7.72;5.70;;;;;;;16.20;84.43;101272.97;5011757;28;20346;-67
2022/07/24 00:36:14;;;;;;;6.32;5.40;;;;;;;16.14;84.21;101278.94;4999073;28;20013;-66
2022/07/24 00:38:39;;;;;;;6.18;5.45;;;;;;;16.10;84.34;101272.22;4998005;28;20584;-67
2022/07/24 00:41:05;;;;;;;5.75;5.25;;;;;;;16.04;84.40;101275.56;4983693;28;20029;-67
2022/07/24 00:43:30;;;;;;;6.18;5.68;;;;;;;16.00;84.60;101272.34;5004362;28;20391;-67
2022/07/24 00:45:56;;;;;;;7.18;5.25;;;;;;;15.98;84.59;101271.69;4974244;28;20021;-66
2022/07/24 00:48:21;;;;;;;5.65;5.07;;;;;;;15.90;84.65;101266.31;4984041;28;20525;-67
2022/07/24 00:50:47;;;;;;;5.68;5.18;;;;;;;15.94;84.71;101268.50;4949702;28;20023;-67
2022/07/24 00:53:12;;;;;;;8.35;5.55;;;;;;;16.03;84.02;101266.69;4964435;28;20025;-67
2022/07/24 00:55:38;;;;;;;6.20;5.50;;;;;;;16.05;83.60;101270.06;4968620;28;20013;-66
2022/07/24 00:58:03;;;;;;;5.45;5.05;;;;;;;16.04;83.49;101276.38;4981717;28;20214;-67
2022/07/24 01:00:29;;;;;;;6.00;5.40;;;;;;;16.02;83.42;101273.03;4966974;28;20276;-66
2022/07/24 01:02:54;;;;;;;5.07;4.78;;;;;;;16.00;83.65;101269.69;4988873;28;20169;-68
2022/07/24 01:05:20;;;;;;;5.88;5.18;;;;;;;15.95;83.80;101274.69;4972399;28;20548;-67
2022/07/24 01:07:45;;;;;;;5.60;5.00;;;;;;;15.92;84.02;101275.84;4961259;28;20021;-67
2022/07/24 01:10:11;;;;;;;6.43;4.80;;;;;;;15.96;83.69;101276.34;4981601;28;20053;-67
2022/07/24 01:12:38;;;;;;;5.30;4.80;;;;;;;15.89;83.97;101284.16;4981163;28;20029;-68
2022/07/24 01:15:04;;;;;;;8.48;5.05;;;;;;;15.83;84.34;101270.59;4981185;28;20782;-67
2022/07/24 01:17:30;;;;;;;6.53;5.10;;;;;;;15.91;84.05;101279.50;4956108;28;20130;-67
2022/07/24 01:19:56;;;;;;;5.45;5.00;;;;;;;15.90;83.66;101284.97;4963261;28;20542;-67
2022/07/24 01:22:22;;;;;;;5.18;4.78;;;;;;;15.84;83.80;101285.63;4967671;28;20411;-68
2022/07/24 01:24:48;;;;;;;5.00;4.60;;;;;;;15.71;84.43;101278.00;4944719;28;20097;-67
2022/07/24 01:27:13;;;;;;;5.10;4.80;;;;;;;15.66;84.56;101278.47;4962668;28;20304;-66
2022/07/24 01:29:39;;;;;;;5.32;4.93;;;;;;;15.59;84.80;101290.75;4981183;28;20057;-67
2022/07/24 01:32:05;;;;;;;6.55;5.00;;;;;;;15.81;84.21;101273.44;4964218;28;20010;-68
2022/07/24 01:34:30;;;;;;;5.80;5.18;;;;;;;15.85;83.57;101287.28;4964069;28;20019;-67
2022/07/24 01:36:55;;;;;;;6.75;5.05;;;;;;;15.68;83.91;101271.16;4947538;28;20003;-67
2022/07/24 01:39:21;;;;;;;7.32;4.72;;;;;;;15.67;84.14;101287.34;4968765;28;20434;-67
2022/07/24 01:41:46;;;;;;;6.45;4.90;;;;;;;15.63;84.37;101282.28;4982231;28;20155;-67
2022/07/24 01:44:12;;;;;;;5.32;4.90;;;;;;;15.57;84.73;101282.09;4968044;28;20465;-67
2022/07/24 01:46:37;;;;;;;5.50;5.00;;;;;;;15.53;85.07;101280.75;4975833;28;20076;-67
2022/07/24 01:49:03;;;;;;;8.73;4.93;;;;;;;15.51;85.25;101277.38;4988821;28;20457;-67
2022/07/24 01:51:28;;;;;;;5.15;4.63;;;;;;;15.58;84.62;101273.09;4983910;28;20010;-67
2022/07/24 01:53:53;;;;;;;6.43;4.88;;;;;;;15.60;84.44;101268.44;4987884;28;20513;-67
2022/07/24 01:56:19;;;;;;;8.13;4.80;;;;;;;15.56;84.59;101272.41;4984017;28;20018;-67
2022/07/24 01:58:44;;;;;;;5.07;4.75;;;;;;;15.58;84.60;101263.25;4983993;28;20306;-67
2022/07/24 02:01:10;;;;;;;4.88;4.57;;;;;;;15.52;84.45;101263.03;4947508;28;20390;-67
2022/07/24 02:03:35;;;;;;;5.25;4.82;;;;;;;15.49;84.87;101266.03;4967649;28;20386;-67
2022/07/24 02:06:01;;;;;;;5.13;4.68;;;;;;;15.56;84.38;101253.75;4932072;28;20018;-65
2022/07/24 02:08:26;;;;;;;5.85;5.32;;;;;;;15.54;84.58;101261.03;4982866;28;20169;-67
2022/07/24 02:10:53;;;;;;;5.88;5.13;;;;;;;15.51;84.95;101267.56;4946980;28;20068;-67
2022/07/24 02:13:18;;;;;;;5.05;4.60;;;;;;;15.46;85.01;101264.50;4983595;28;20010;-66
2022/07/24 02:15:44;;;;;;;5.10;4.80;;;;;;;15.39;85.19;101263.47;4952677;28;20326;-66
2022/07/24 02:18:09;;;;;;;6.32;5.15;;;;;;;15.44;85.16;101262.00;4980790;28;20013;-67
2022/07/24 02:20:34;;;;;;;5.35;4.95;;;;;;;15.40;85.45;101263.31;4970848;28;20052;-67
2022/07/24 02:23:00;;;;;;;6.40;4.78;;;;;;;15.29;85.81;101264.38;4985867;28;20033;-67
2022/07/24 02:25:25;;;;;;;5.28;4.85;;;;;;;15.26;86.21;101259.38;4969369;28;20018;-67
2022/07/24 02:27:51;;;;;;;4.95;4.65;;;;;;;15.37;85.57;101255.63;4983458;28;20045;-67
2022/07/24 02:30:20;;;;;;;4.93;4.63;;;;;;;15.38;85.31;101261.78;4987674;28;20321;-67
2022/07/24 02:32:46;;;;;;;4.82;4.43;;;;;;;15.33;85.22;101259.59;4977093;28;20269;-67
2022/07/24 02:35:11;;;;;;;5.30;4.90;;;;;;;15.38;85.00;101251.94;4956076;28;20029;-67
2022/07/24 02:37:40;;;;;;;5.10;4.80;;;;;;;15.36;84.98;101247.78;4969108;28;20596;-67
2022/07/24 02:40:07;;;;;;;4.95;4.55;;;;;;;15.27;85.13;101247.72;4950873;28;20484;-67
2022/07/24 02:42:32;;;;;;;5.72;4.75;;;;;;;15.25;85.38;101257.69;4952787;28;20018;-67
2022/07/24 02:44:57;;;;;;;6.05;5.25;;;;;;;15.24;85.60;101255.16;4957675;28;20032;-67
2022/07/24 02:47:23;;;;;;;5.65;4.50;;;;;;;15.23;85.46;101253.50;4952116;28;20263;-67
2022/07/24 02:49:48;;;;;;;5.28;4.63;;;;;;;15.15;85.75;101250.78;4984922;28;20343;-66
2022/07/24 02:52:14;;;;;;;5.78;4.72;;;;;;;15.11;86.32;101244.91;4989825;28;20365;-67
2022/07/24 02:54:39;;;;;;;5.28;4.78;;;;;;;15.20;85.73;101251.13;4984570;28;20079;-67
2022/07/24 02:57:05;;;;;;;6.35;5.10;;;;;;;15.08;86.09;101243.38;4986798;28;20420;-67
2022/07/24 02:59:31;;;;;;;5.18;4.70;;;;;;;15.04;86.56;101244.69;4984395;28;20360;-66
2022/07/24 03:01:56;;;;;;;5.47;5.13;;;;;;;14.95;86.83;101250.94;4981296;28;20017;-67
2022/07/24 03:04:22;;;;;;;5.20;4.90;;;;;;;15.02;86.80;101246.69;4954201;28;20035;-66
2022/07/24 03:06:47;;;;;;;5.47;4.97;;;;;;;14.96;86.99;101241.13;4970026;28;20002;-67
2022/07/24 03:09:12;;;;;;;5.60;5.20;;;;;;;14.90;87.29;101243.41;4976927;28;20014;-66
2022/07/24 03:11:38;;;;;;;7.05;5.30;;;;;;;15.00;87.14;101243.31;4986509;28;20006;-68
2022/07/24 03:14:03;;;;;;;5.22;4.80;;;;;;;15.01;86.87;101241.50;4969301;28;20275;-67
2022/07/24 03:16:29;;;;;;;5.70;4.93;;;;;;;15.00;86.98;101237.97;4973217;28;20007;-67
2022/07/24 03:18:54;;;;;;;5.72;5.20;;;;;;;14.94;87.18;101244.75;4950492;28;20118;-66
2022/07/24 03:21:20;;;;;;;5.28;4.82;;;;;;;14.92;87.14;101244.09;4965377;28;20264;-67
2022/07/24 03:23:45;;;;;;;5.55;5.05;;;;;;;14.94;87.49;101244.75;4968318;28;20014;-67
2022/07/24 03:26:10;;;;;;;5.03;4.72;;;;;;;14.98;87.25;101245.31;4952628;28;20045;-66
2022/07/24 03:28:36;;;;;;;5.55;4.95;;;;;;;14.93;86.76;101242.25;4950269;28;20113;-69
2022/07/24 03:31:01;;;;;;;6.20;5.20;;;;;;;14.87;87.87;101242.88;4963097;28;20835;-67
2022/07/24 03:33:27;;;;;;;5.30;4.90;;;;;;;14.91;87.23;101239.75;4966386;28;20025;-67
2022/07/24 03:35:53;;;;;;;5.07;4.65;;;;;;;14.97;87.07;101237.47;4966318;28;20079;-67
2022/07/24 03:38:18;;;;;;;5.60;5.10;;;;;;;15.04;86.72;101242.03;4971059;28;20410;-67
2022/07/24 03:40:44;;;;;;;5.10;4.85;;;;;;;15.01;86.52;101239.66;4966507;28;20084;-65
2022/07/24 03:43:09;;;;;;;6.18;4.90;;;;;;;14.98;86.47;101226.66;4986261;28;20048;-67
2022/07/24 03:45:34;;;;;;;5.35;4.93;;;;;;;15.02;86.45;101238.69;4988869;28;20044;-67
2022/07/24 03:48:00;;;;;;;5.93;5.22;;;;;;;15.01;86.32;101234.34;5011534;28;20368;-67
2022/07/24 03:50:25;;;;;;;5.43;4.93;;;;;;;15.05;86.13;101245.53;4980123;28;20025;-66
2022/07/24 03:52:51;;;;;;;5.50;5.00;;;;;;;15.00;86.13;101240.66;4983787;28;20333;-67
2022/07/24 03:55:17;;;;;;;5.18;4.70;;;;;;;14.98;86.39;101239.97;4967389;28;20053;-66
2022/07/24 03:57:42;;;;;;;6.57;4.82;;;;;;;14.97;86.48;101245.47;4963981;28;20082;-67
2022/07/24 04:00:09;;;;;;;5.57;5.07;;;;;;;15.02;86.35;101246.69;4985000;28;20560;-67
2022/07/24 04:02:34;;;;;;;4.75;4.45;;;;;;;15.05;86.27;101248.22;4994976;28;20010;-67
2022/07/24 04:05:00;;;;;;;7.82;4.63;;;;;;;15.05;86.51;101257.03;4988629;28;20478;-67
2022/07/24 04:07:25;;;;;;;7.63;4.88;;;;;;;15.13;86.34;101258.09;4961023;28;20037;-64
2022/07/24 04:09:50;;;;;;;5.72;5.10;;;;;;;15.11;86.18;101260.91;4985524;28;20064;-67
2022/07/24 04:12:16;;;;;;;5.28;4.78;;;;;;;15.08;86.26;101251.38;4951267;28;20014;-65
2022/07/24 04:14:41;;;;;;;5.68;4.88;;;;;;;15.01;86.48;101250.31;4982843;28;20855;-67
2022/07/24 04:17:07;;;;;;;5.97;4.90;;;;;;;15.09;86.61;101253.06;4972813;28;20101;-66
2022/07/24 04:19:32;;;;;;;5.45;4.88;;;;;;;15.23;85.95;101259.69;4983506;28;20017;-66
2022/07/24 04:21:58;;;;;;;5.47;4.97;;;;;;;15.22;85.96;101257.16;4965968;28;20021;-66
2022/07/24 04:24:23;;;;;;;5.65;5.15;;;;;;;15.20;86.17;101261.81;4982075;28;20045;-66
2022/07/24 04:26:49;;;;;;;5.57;5.18;;;;;;;15.24;86.12;101256.03;4968698;28;20040;-67
2022/07/24 04:29:15;;;;;;;4.95;4.65;;;;;;;15.23;86.15;101257.00;4953815;28;20045;-67
2022/07/24 04:31:40;;;;;;;5.93;5.38;;;;;;;15.30;86.30;101257.25;4931251;28;20278;-67
2022/07/24 04:34:05;;;;;;;6.05;4.82;;;;;;;15.27;86.42;101254.84;4962197;28;20041;-67
2022/07/24 04:36:31;;;;;;;9.65;5.35;;;;;;;15.31;86.74;101250.88;4949995;28;20394;-67
2022/07/24 04:38:56;;;;;;;5.65;4.82;;;;;;;15.31;86.65;101258.06;4969012;28;20018;-67
2022/07/24 04:41:22;;;;;;;7.78;5.10;;;;;;;15.42;86.17;101255.97;4981814;28;20787;-66
2022/07/24 04:43:48;;;;;;;5.38;4.88;;;;;;;15.37;86.60;101250.28;4962131;28;20034;-67
2022/07/24 04:46:13;;;;;;;5.35;4.95;;;;;;;15.42;86.48;101255.16;4962032;28;20811;-67
2022/07/24 04:48:39;;;;;;;7.60;5.35;;;;;;;15.54;86.44;101267.25;4974313;28;20053;-65
2022/07/24 04:51:04;;;;;;;4.60;4.40;;;;;;;15.57;85.81;101245.56;4983269;28;20769;-67
2022/07/24 04:53:30;;;;;;;4.70;4.32;;;;;;;15.64;85.68;101256.47;4966733;28;20006;-66
2022/07/24 04:55:56;;;;;;;4.95;4.55;;;;;;;15.59;85.88;101259.59;4968372;28;20534;-67
2022/07/24 04:58:22;;;;;;;4.55;4.30;;;;;;;15.71;85.98;101246.84;4968268;28;20086;-67
2022/07/24 05:00:47;;;;;;;4.90;4.45;;;;;;;15.78;85.69;101245.19;4985070;28;20245;-67
2022/07/24 05:03:13;;;;;;;5.88;4.60;;;;;;;15.80;85.63;101251.22;4983831;28;20054;-66
2022/07/24 05:05:38;;;;;;;4.93;4.63;;;;;;;15.85;85.63;101252.59;4947916;28;20017;-66
2022/07/24 05:08:03;;;;;;;6.05;4.60;;;;;;;15.98;85.61;101253.00;4977245;28;20990;-66
2022/07/24 05:10:29;;;;;;;5.40;4.50;;;;;;;16.04;85.28;101241.66;4962757;28;20916;-66
2022/07/24 05:12:54;;;;;;;5.25;4.90;;;;;;;16.10;85.18;101245.53;4984313;28;21063;-66
2022/07/24 05:15:20;;;;;;;5.07;4.68;;;;;;;16.27;85.28;101246.44;4965072;28;20022;-66
2022/07/24 05:17:47;;;;;;;4.93;4.72;;;;;;;16.38;84.77;101245.31;4949392;28;20205;-66
2022/07/24 05:20:12;;;;;;;6.03;5.05;;;;;;;16.54;84.51;101247.16;4948983;28;20141;-66
2022/07/24 05:22:38;;;;;;;4.60;4.28;;;;;;;16.64;84.00;101248.69;4965073;28;20014;-66
2022/07/24 05:25:04;;;;;;;4.82;4.45;;;;;;;16.78;83.67;101246.38;4966407;28;20050;-66
2022/07/24 05:27:29;;;;;;;5.10;4.72;;;;;;;16.90;82.88;101244.25;4963969;28;20034;-66
2022/07/24 05:29:55;;;;;;;5.82;4.68;;;;;;;17.04;82.36;101243.59;4972596;28;20079;-66
2022/07/24 05:32:20;;;;;;;4.93;4.53;;;;;;;17.06;80.31;101240.75;4951069;28;20072;-66
2022/07/24 05:34:45;;;;;;;4.53;4.32;;;;;;;17.18;80.77;101250.09;4952350;28;20990;-66
2022/07/24 05:37:11;;;;;;;4.55;4.25;;;;;;;17.34;79.71;101246.56;4974705;28;20877;-67
2022/07/24 05:39:36;;;;;;;4.40;4.10;;;;;;;17.43;78.19;101239.38;4980703;28;20121;-67
2022/07/24 05:42:02;;;;;;;4.45;4.15;;;;;;;17.59;77.74;101241.19;4985974;28;20672;-67
2022/07/24 05:44:28;;;;;;;4.95;4.05;;;;;;;17.74;77.22;101236.81;4981918;28;20483;-66
2022/07/24 05:46:53;;;;;;;4.07;3.88;;;;;;;17.90;77.56;101240.44;4965072;28;20347;-66
2022/07/24 05:49:19;;;;;;;4.20;3.90;;;;;;;18.01;76.23;101245.44;4989479;28;20412;-66
2022/07/24 05:51:44;;;;;;;4.10;3.80;;;;;;;18.17;75.50;101249.88;4965880;28;20072;-66
2022/07/24 05:54:09;;;;;;;4.47;4.03;;;;;;;18.27;74.88;101255.03;4986930;28;20438;-66
2022/07/24 05:56:35;;;;;;;4.22;3.60;;;;;;;18.36;74.98;101254.00;4985591;28;20029;-65
2022/07/24 05:59:00;;;;;;;3.75;3.55;;;;;;;18.41;74.71;101253.47;4986807;28;20382;-67
2022/07/24 06:01:26;;;;;;;4.47;4.10;;;;;;;18.47;74.42;101247.38;4966789;28;20017;-66
2022/07/24 06:03:51;;;;;;;4.90;3.78;;;;;;;18.48;74.90;101241.03;4987138;28;20511;-66
2022/07/24 06:06:16;;;;;;;3.72;3.53;;;;;;;18.53;74.32;101250.19;4964723;28;20625;-66
2022/07/24 06:08:42;;;;;;;4.30;4.00;;;;;;;18.58;74.48;101246.16;4969126;28;20117;-66
2022/07/24 06:11:07;;;;;;;4.07;3.80;;;;;;;18.63;73.84;101243.78;4932697;28;20129;-66
2022/07/24 06:13:33;;;;;;;3.63;3.42;;;;;;;18.66;72.92;101240.75;4965958;28;20331;-66
2022/07/24 06:15:58;;;;;;;4.18;3.85;;;;;;;18.72;73.36;101242.69;4965618;28;20266;-66
2022/07/24 06:18:23;;;;;;;3.67;3.42;;;;;;;18.82;72.61;101239.78;4968803;28;20784;-67
2022/07/24 06:20:49;;;;;;;3.85;3.60;;;;;;;18.96;73.24;101240.88;4951174;28;20052;-66
2022/07/24 06:23:14;;;;;;;4.00;3.55;;;;;;;19.01;72.89;101236.66;4947749;28;20676;-66
2022/07/24 06:25:40;;;;;;;5.38;4.00;;;;;;;19.11;70.79;101246.31;4948423;28;20030;-66
2022/07/24 06:28:05;;;;;;;4.00;3.70;;;;;;;19.20;70.95;101248.72;4966608;28;20385;-67
2022/07/24 06:30:31;;;;;;;4.32;3.90;;;;;;;19.30;71.34;101239.59;4933369;28;20192;-66
2022/07/24 06:32:57;;;;;;;4.25;3.75;;;;;;;19.35;71.44;101247.94;4948852;28;20018;-67
2022/07/24 06:35:23;;;;;;;7.00;4.32;;;;;;;19.47;69.81;101246.44;4935296;28;20779;-67
2022/07/24 06:37:49;;;;;;;4.10;3.78;;;;;;;19.58;69.49;101245.16;4962268;28;20639;-67
2022/07/24 06:40:15;;;;;;;4.00;3.70;;;;;;;19.68;67.92;101251.09;4985300;28;20392;-68
2022/07/24 06:42:41;;;;;;;3.90;3.60;;;;;;;19.75;67.78;101248.50;4983081;28;20219;-66
2022/07/24 06:45:06;;;;;;;3.33;3.13;;;;;;;19.84;66.78;101251.97;4983792;28;20759;-67
2022/07/24 06:47:32;;;;;;;4.15;3.75;;;;;;;19.91;66.07;101247.50;4944894;28;20072;-67
2022/07/24 06:49:57;;;;;;;3.30;3.20;;;;;;;19.99;64.92;101250.09;4948514;28;20504;-67
2022/07/24 06:52:23;;;;;;;3.33;3.13;;;;;;;20.17;63.97;101255.09;4951671;28;20947;-67
2022/07/24 06:54:48;;;;;;;4.22;3.20;;;;;;;20.17;63.90;101254.25;4950589;28;20034;-67
2022/07/24 06:57:14;;;;;;;3.88;3.60;;;;;;;20.22;63.94;101254.50;4953604;28;20503;-66
2022/07/24 06:59:40;;;;;;;3.42;3.22;;;;;;;20.29;64.19;101259.97;4967164;28;20025;-65
2022/07/24 07:02:05;;;;;;;3.53;3.33;;;;;;;20.31;64.08;101248.03;4970823;28;20209;-67
2022/07/24 07:04:31;;;;;;;3.30;3.15;;;;;;;20.40;63.79;101256.78;4956776;28;20018;-66
2022/07/24 07:06:56;;;;;;;3.30;3.10;;;;;;;20.46;62.90;101253.38;4964227;28;20095;-68
2022/07/24 07:09:21;;;;;;;3.30;3.10;;;;;;;20.49;63.12;101258.38;4960656;28;20069;-67
2022/07/24 07:11:47;;;;;;;3.42;3.15;;;;;;;20.64;62.08;101263.69;4981458;28;20002;-68
2022/07/24 07:14:13;;;;;;;4.90;4.50;;;;;;;20.66;62.86;101267.03;4960720;28;20029;-67
2022/07/24 07:16:38;;;;;;;3.95;3.67;;;;;;;20.81;61.70;101266.97;4982348;28;20120;-68
2022/07/24 07:19:03;;;;;;;4.25;3.65;;;;;;;20.96;61.17;101260.72;4970364;28;20549;-67
2022/07/24 07:21:29;;;;;;;3.50;3.30;;;;;;;21.02;60.42;101266.16;4966901;28;20444;-67
2022/07/24 07:23:54;;;;;;;3.28;3.08;;;;;;;21.20;59.50;101273.75;4970270;28;20900;-67
2022/07/24 07:26:20;;;;;;;3.50;3.30;;;;;;;21.23;60.79;101277.91;4969122;28;20617;-68
2022/07/24 07:28:45;;;;;;;3.97;3.78;;;;;;;21.21;59.36;101272.75;4965925;28;20431;-70
2022/07/24 07:31:10;;;;;;;3.78;3.42;;;;;;;21.18;59.25;101273.13;4969527;28;20071;-68
2022/07/24 07:33:36;;;;;;;3.97;3.67;;;;;;;21.26;59.21;101275.69;4990134;28;20793;-68
2022/07/24 07:36:01;;;;;;;3.75;3.40;;;;;;;21.34;59.56;101268.50;4930661;28;20589;-73
2022/07/24 07:38:27;;;;;;;3.60;3.40;;;;;;;21.45;59.14;101274.16;4971231;28;20068;-71
2022/07/24 07:40:52;;;;;;;6.65;3.83;;;;;;;21.53;57.84;101275.06;4966403;28;20025;-69
2022/07/24 07:43:18;;;;;;;4.30;3.90;;;;;;;21.48;57.97;101275.63;4971857;28;20156;-70
2022/07/24 07:45:43;;;;;;;4.22;3.85;;;;;;;21.55;58.08;101268.47;4970854;28;20044;-73
2022/07/24 07:48:09;;;;;;;4.20;3.80;;;;;;;21.74;58.80;101263.41;4976316;28;20527;-73
2022/07/24 07:50:34;;;;;;;3.72;3.45;;;;;;;21.79;58.80;101267.16;4956456;28;19994;-72
2022/07/24 07:53:00;;;;;;;4.13;3.75;;;;;;;21.88;58.24;101265.13;4979811;28;20536;-73
2022/07/24 07:55:26;;;;;;;3.92;3.63;;;;;;;22.05;56.37;101259.41;4958187;28;20010;-71
2022/07/24 07:57:51;;;;;;;3.90;3.60;;;;;;;22.11;56.73;101264.00;4972679;28;20288;-71
2022/07/24 08:00:18;;;;;;;3.40;3.30;;;;;;;22.05;56.10;101257.53;4953634;28;20014;-71
2022/07/24 08:02:43;;;;;;;3.90;3.70;;;;;;;22.05;57.20;101252.16;4988008;28;20029;-73
2022/07/24 08:05:09;;;;;;;3.97;3.78;;;;;;;22.11;56.50;101259.44;4956563;28;20775;-73
2022/07/24 08:07:35;;;;;;;3.63;3.42;;;;;;;22.22;56.37;101259.91;4951363;28;20129;-74
2022/07/24 08:10:00;;;;;;;3.67;3.38;;;;;;;22.25;55.88;101254.09;4954853;28;20389;-73
2022/07/24 08:12:26;;;;;;;3.90;3.70;;;;;;;22.32;55.86;101259.53;4947368;28;20029;-71
2022/07/24 08:14:51;;;;;;;4.07;3.85;;;;;;;22.54;54.61;101257.56;4963005;28;20144;-72
2022/07/24 08:17:17;;;;;;;4.05;3.78;;;;;;;22.74;55.39;101261.09;4960135;28;20117;-72
2022/07/24 08:19:42;;;;;;;4.15;3.88;;;;;;;22.83;54.34;101250.13;4961408;28;20249;-74
2022/07/24 08:22:08;;;;;;;3.95;3.60;;;;;;;22.86;55.16;101255.09;4952128;28;20535;-72
2022/07/24 08:24:34;;;;;;;3.75;3.45;;;;;;;22.91;54.56;101250.75;4958228;28;20224;-72
2022/07/24 08:26:59;;;;;;;4.15;3.85;;;;;;;23.04;53.59;101249.09;4918051;28;20935;-72
2022/07/24 08:29:25;;;;;;;4.53;3.60;;;;;;;23.11;53.83;101249.94;4940647;28;20236;-70
2022/07/24 08:31:51;;;;;;;4.63;3.67;;;;;;;23.26;52.40;101255.97;4955528;28;20512;-73
2022/07/24 08:34:17;;;;;;;4.30;3.97;;;;;;;23.42;52.57;101253.88;4950719;28;20445;-72
2022/07/24 08:36:45;;;;;;;4.00;3.70;;;;;;;23.49;51.38;101252.84;4949418;28;20140;-73
2022/07/24 08:39:15;;;;;;;4.18;3.70;;;;;;;23.52;51.47;101246.19;4954068;28;20025;-72
2022/07/24 08:41:41;;;;;;;20.23;4.97;;;;;;;23.56;51.28;101250.13;4970007;28;21038;-70
2022/07/24 08:44:06;;;;;;;5.95;4.15;;;;;;;23.62;51.53;101238.47;4952797;28;20806;-70
2022/07/24 08:46:32;;;;;;;3.90;3.58;;;;;;;23.84;50.88;101238.19;4974169;28;20103;-71
2022/07/24 08:48:58;;;;;;;3.80;3.50;;;;;;;24.00;51.08;101239.63;4953519;28;20936;-72
2022/07/24 08:51:23;;;;;;;3.78;3.55;;;;;;;24.07;51.13;101236.91;4950305;28;20002;-72
2022/07/24 08:53:49;;;;;;;6.07;3.70;;;;;;;24.14;50.37;101240.41;4954413;28;20194;-71
2022/07/24 08:56:16;;;;;;;3.90;3.70;;;;;;;24.40;49.59;101244.84;4951478;28;20534;-70
2022/07/24 08:58:41;;;;;;;4.10;3.70;;;;;;;24.50;48.55;101239.78;4952525;28;20310;-71
2022/07/24 09:01:07;;;;;;;3.90;3.70;;;;;;;24.74;48.71;101244.69;4952828;28;20021;-70
2022/07/24 09:03:44;;;;;;;3.95;3.75;;;;;;;24.82;48.39;101237.13;4967090;28;20795;-70
2022/07/24 09:06:10;;;;;;;4.35;4.05;;;;;;;24.96;48.31;101231.59;4956729;28;20034;-72
2022/07/24 09:08:36;;;;;;;4.47;4.07;;;;;;;25.05;47.90;101235.69;4972193;28;20348;-70
2022/07/24 09:11:04;;;;;;;3.90;3.70;;;;;;;25.05;47.10;101224.03;4971756;28;20006;-69
2022/07/24 09:14:29;;;;;;;5.70;4.15;;;;;;;25.11;47.19;101228.56;4976065;28;20984;-68
2022/07/24 09:16:26;;;;;;;5.07;4.00;;;;;;;25.40;48.33;101226.22;4970991;28;20029;-69
2022/07/24 09:19:03;;;;;;;5.35;4.82;;;;;;;25.54;46.75;101225.88;4990493;28;20292;-68
2022/07/24 09:21:31;;;;;;;5.03;4.63;;;;;;;25.49;45.79;101214.88;4970453;28;20331;-69
2022/07/24 09:24:02;;;;;;;4.55;4.15;;;;;;;25.60;46.31;101210.59;4958633;28;20043;-68
2022/07/24 09:26:45;;;;;;;4.45;4.13;;;;;;;25.89;46.18;101214.44;4989808;28;20064;-70
2022/07/24 09:29:12;;;;;;;4.60;4.20;;;;;;;26.09;45.34;101205.25;4973692;28;20939;-67
2022/07/24 09:31:58;;;;;;;4.55;4.07;;;;;;;26.40;45.07;101209.59;4973173;28;20049;-66
2022/07/24 09:34:24;;;;;;;5.45;4.22;;;;;;;26.49;44.73;101196.50;4973357;28;20293;-68
2022/07/24 09:36:58;;;;;;;4.95;4.55;;;;;;;26.79;45.43;101194.84;4990490;28;20091;-68
2022/07/24 09:39:25;;;;;;;4.70;4.40;;;;;;;26.79;43.51;101205.69;4955761;28;20110;-68
2022/07/24 09:41:52;;;;;;;4.78;4.38;;;;;;;26.99;45.07;101189.91;4990023;28;20304;-68
2022/07/24 09:44:17;;;;;;;4.13;3.83;;;;;;;27.43;45.71;101189.56;4974453;28;20594;-69
2022/07/24 09:46:47;;;;;;;4.95;4.45;;;;;;;27.51;43.35;101186.47;4984391;28;20112;-68
2022/07/24 09:49:20;;;;;;;4.75;4.30;;;;;;;27.72;45.23;101187.72;4985623;28;20014;-70
2022/07/24 09:51:49;;;;;;;4.70;4.32;;;;;;;27.90;47.34;101180.44;5005834;28;20320;-76
2022/07/24 09:54:14;;;;;;;5.55;4.70;;;;;;;27.94;45.82;101181.59;4964740;28;20368;-72
2022/07/24 09:56:40;;;;;;;4.65;4.10;;;;;;;28.16;44.91;101183.66;4977335;28;20792;-72
2022/07/24 09:59:07;;;;;;;4.38;4.13;;;;;;;28.40;44.57;101184.38;4971097;28;20125;-71
2022/07/24 10:01:32;;;;;;;4.35;3.95;;;;;;;28.47;41.73;101184.22;4980713;28;20500;-72
2022/07/24 10:04:00;;;;;;;5.20;4.80;;;;;;;28.51;42.73;101182.66;4977036;28;20475;-71
2022/07/24 10:06:26;;;;;;;4.43;4.03;;;;;;;28.89;41.60;101175.66;5006728;28;20408;-71
2022/07/24 10:08:52;;;;;;;4.30;4.00;;;;;;;29.06;41.63;101173.75;4974403;28;20816;-71
2022/07/24 10:11:18;;;;;;;4.13;3.63;;;;;;;29.23;41.90;101167.44;4960019;28;20312;-70
2022/07/24 10:13:44;;;;;;;3.60;3.40;;;;;;;29.45;41.13;101171.03;4973046;28;20098;-72
2022/07/24 10:16:13;;;;;;;4.22;3.80;;;;;;;29.51;38.93;101174.66;4993768;28;20384;-72
2022/07/24 10:18:38;;;;;;;3.85;3.60;;;;;;;29.28;36.99;101175.72;5009106;28;20034;-69
2022/07/24 10:21:06;;;;;;;4.00;3.70;;;;;;;29.29;40.78;101158.28;4999785;28;20022;-69
2022/07/24 10:23:36;;;;;;;3.47;3.28;;;;;;;29.54;39.07;101152.31;4999049;28;20014;-72
2022/07/24 10:26:06;;;;;;;3.40;3.20;;;;;;;29.78;37.58;101152.03;4991673;28;20037;-70
2022/07/24 10:28:40;;;;;;;3.63;3.42;;;;;;;30.09;39.75;101153.25;4978786;28;20546;-72
2022/07/24 10:31:06;;;;;;;3.40;3.20;;;;;;;30.42;38.55;101145.06;4994710;28;20204;-72
2022/07/24 10:33:32;;;;;;;3.70;3.35;;;;;;;30.48;35.91;101144.84;4992830;28;20741;-73
2022/07/24 10:35:58;;;;;;;3.45;3.28;;;;;;;30.38;35.24;101141.22;4976277;28;20167;-70
2022/07/24 10:38:33;;;;;;;3.60;3.30;;;;;;;30.46;36.16;101146.19;4973302;28;20387;-71
2022/07/24 10:41:02;;;;;;;3.42;3.13;;;;;;;30.69;36.49;101138.75;4978957;28;20006;-69
2022/07/24 10:43:27;;;;;;;4.30;4.00;;;;;;;31.02;35.03;101132.13;4974282;28;20477;-71
2022/07/24 10:45:55;;;;;;;3.83;3.53;;;;;;;31.23;37.19;101138.53;4980435;28;20111;-72
2022/07/24 10:48:24;;;;;;;3.50;3.30;;;;;;;31.41;33.99;101134.50;4993428;28;20302;-71
2022/07/24 10:51:02;;;;;;;4.85;3.30;;;;;;;31.75;33.11;101138.75;4993623;28;20018;-72
2022/07/24 10:53:29;;;;;;;3.60;3.30;;;;;;;31.85;33.70;101130.56;4991396;28;20022;-70
2022/07/24 10:56:17;;;;;;;3.30;3.20;;;;;;;32.10;34.25;101132.50;4972795;28;20133;-69
2022/07/24 10:58:52;;;;;;;3.85;3.47;;;;;;;32.29;35.64;101127.38;4992039;28;20057;-71
2022/07/24 11:01:42;;;;;;;3.08;2.95;;;;;;;32.33;32.77;101122.16;4973362;28;20227;-69
2022/07/24 11:04:23;;;;;;;3.85;3.08;;;;;;;32.47;31.87;101125.97;4990029;28;20026;-68
2022/07/24 11:06:56;;;;;;;3.55;3.25;;;;;;;32.30;31.78;101111.75;4990939;28;20810;-67
2022/07/24 11:09:25;;;;;;;;;;;;;;;32.20;33.14;101118.03;4984441;28;21028;-69
2022/07/24 11:11:53;;;;;;;3.50;3.30;;;;;;;32.05;32.24;101110.59;4993888;28;20352;-68
2022/07/24 11:14:25;;;;;;;3.20;2.90;;;;;;;32.09;35.08;101111.69;5000938;28;20610;-67
2022/07/24 11:16:51;;;;;;;3.17;3.00;;;;;;;32.55;33.00;101113.66;4994610;28;20458;-69
2022/07/24 11:19:16;;;;;;;3.33;3.03;;;;;;;32.73;30.92;101115.03;4954687;28;20125;-69
2022/07/24 11:21:43;;;;;;;3.73;3.43;;;;;;;32.40;31.79;101119.94;4989878;28;20049;-71